Terminal Aerodrome Forecast
Issued by NWS

Home | Current Version | Previous Version | Text Only | Print | Product List | Glossary On
Versions: 1 2 3 4 5 6 7 8 9 10 11 12
000
FTUS42 TJSJ 241700
TAFJPS
TAF
TJPS 241735Z 2418/2518 12012G20KT P6SM VCSH FEW030
     FM242200 07007KT P6SM SCT025
     FM251400 13010KT P6SM FEW030
      AMD NOT SKED TIL 250300=

USA.gov is the U.S. government's official web portal to all federal, state and local government web resources and services.